Terminal Aerodrome Forecast
Issued by NWS Lake Charles, LA

Home | Current Version | Previous Version | Text Only | Print | Product List | Glossary On
Versions: 1 2 3 4 5 6 7 8 9 10 11 12 13 14 15 16 17 18 19 20
000
FTUS44 KLCH 181729
TAFARA
TAF
KARA 181729Z 1818/1918 04005KT P6SM VCTS BKN006 OVC015CB
     FM182100 VRB05KT P6SM VCTS OVC015CB
     FM190000 VRB04KT 3SM BR OVC006
     FM190600 VRB03KT 1SM BR OVC003
     FM191500 16007KT 4SM BR VCSH BKN007=

USA.gov is the U.S. government's official web portal to all federal, state and local government web resources and services.